Comandante Luis Piedra Buena, Argentina
Current Conditions -  °F | °C
As of 10:00 PM on Friday 28 Nov 2014 (Local Time) from SAWG Reporting Station
Broken Clouds Broken Clouds  
Wind Chill: 42°   Ceiling: 20000
Heat Index: 46°   Visibility: 6mi
Dew Point: 34°   Wind: 9mph
Humidity: 62%   Direction: 200°SSW
Pressure: 29.62"   Gusts: NA
Location:  49.98°S, 68.9°W
Report Text: SAWG 290100Z 20008KT 9999 FEW035 SCT050 BKN200 08/01 Q1003
Loading
Personal Weather Stations






























Interactive Weather Map New forecast layout! Learn more

10-Day Weather Forecast

Advertisements
Track Severe Weather on mobile